Terminal Aerodrome Forecast
Issued by NWS

Home | Current Version | Previous Version | Text Only | Print | Product List | Glossary On
Versions: 1 2 3 4 5 6 7 8 9 10 11 12 13 14
000
FTUS45 KSLC 171724
TAFOGD
TAF
KOGD 171724Z 1718/1818 22012G20KT P6SM SKC
     FM180300 18008KT P6SM FEW100
     FM181200 17010KT P6SM BKN120=

USA.gov is the U.S. government's official web portal to all federal, state and local government web resources and services.